sensor_id;sensor_type;location;lat;lon;timestamp;P1;durP1;ratioP1;P2;durP2;ratioP2
70667;SDS011;58242;51.250;-1.118;2023-03-23T00:01:57;29.27;;;7.70;;
70667;SDS011;58242;51.250;-1.118;2023-03-23T00:04:22;23.10;;;7.15;;
70667;SDS011;58242;51.250;-1.118;2023-03-23T00:06:51;24.13;;;8.53;;
70667;SDS011;58242;51.250;-1.118;2023-03-23T00:09:16;20.48;;;7.15;;
70667;SDS011;58242;51.250;-1.118;2023-03-23T00:11:43;15.48;;;6.57;;
70667;SDS011;58242;51.250;-1.118;2023-03-23T00:14:09;18.08;;;6.82;;
70667;SDS011;58242;51.250;-1.118;2023-03-23T00:16:41;23.17;;;7.45;;
70667;SDS011;58242;51.250;-1.118;2023-03-23T00:19:08;23.50;;;6.43;;
70667;SDS011;58242;51.250;-1.118;2023-03-23T00:21:38;22.15;;;7.60;;
70667;SDS011;58242;51.250;-1.118;2023-03-23T00:24:11;18.52;;;6.88;;
70667;SDS011;58242;51.250;-1.118;2023-03-23T00:26:44;20.73;;;5.75;;
70667;SDS011;58242;51.250;-1.118;2023-03-23T00:29:15;19.92;;;6.22;;
70667;SDS011;58242;51.250;-1.118;2023-03-23T00:31:42;29.75;;;8.38;;
70667;SDS011;58242;51.250;-1.118;2023-03-23T00:34:12;25.95;;;6.88;;
70667;SDS011;58242;51.250;-1.118;2023-03-23T00:36:43;28.40;;;7.10;;
70667;SDS011;58242;51.250;-1.118;2023-03-23T00:39:09;22.23;;;7.40;;
70667;SDS011;58242;51.250;-1.118;2023-03-23T00:41:35;18.27;;;6.63;;
70667;SDS011;58242;51.250;-1.118;2023-03-23T00:44:01;19.73;;;6.35;;
70667;SDS011;58242;51.250;-1.118;2023-03-23T00:46:27;27.20;;;9.18;;
70667;SDS011;58242;51.250;-1.118;2023-03-23T00:48:53;25.80;;;7.68;;
70667;SDS011;58242;51.250;-1.118;2023-03-23T00:51:21;26.15;;;7.30;;
70667;SDS011;58242;51.250;-1.118;2023-03-23T00:53:47;27.05;;;8.02;;
70667;SDS011;58242;51.250;-1.118;2023-03-23T00:56:12;14.60;;;5.75;;
70667;SDS011;58242;51.250;-1.118;2023-03-23T00:58:38;18.45;;;6.97;;
70667;SDS011;58242;51.250;-1.118;2023-03-23T01:01:04;14.77;;;5.70;;
70667;SDS011;58242;51.250;-1.118;2023-03-23T01:03:29;18.58;;;5.93;;
70667;SDS011;58242;51.250;-1.118;2023-03-23T01:05:55;17.95;;;5.28;;
70667;SDS011;58242;51.250;-1.118;2023-03-23T01:08:21;12.82;;;4.75;;
70667;SDS011;58242;51.250;-1.118;2023-03-23T01:10:47;20.67;;;6.55;;
70667;SDS011;58242;51.250;-1.118;2023-03-23T01:13:13;29.55;;;8.38;;
70667;SDS011;58242;51.250;-1.118;2023-03-23T01:15:40;24.30;;;7.93;;
70667;SDS011;58242;51.250;-1.118;2023-03-23T01:18:06;21.15;;;7.50;;
70667;SDS011;58242;51.250;-1.118;2023-03-23T01:20:32;20.90;;;6.38;;
70667;SDS011;58242;51.250;-1.118;2023-03-23T01:22:57;17.50;;;5.05;;
70667;SDS011;58242;51.250;-1.118;2023-03-23T01:25:26;21.30;;;6.85;;
70667;SDS011;58242;51.250;-1.118;2023-03-23T01:27:53;21.27;;;5.97;;
70667;SDS011;58242;51.250;-1.118;2023-03-23T01:30:18;21.67;;;6.28;;
70667;SDS011;58242;51.250;-1.118;2023-03-23T01:32:44;14.32;;;5.05;;
70667;SDS011;58242;51.250;-1.118;2023-03-23T01:35:11;19.00;;;5.63;;
70667;SDS011;58242;51.250;-1.118;2023-03-23T01:37:37;18.88;;;5.15;;
70667;SDS011;58242;51.250;-1.118;2023-03-23T01:40:02;19.00;;;5.72;;
70667;SDS011;58242;51.250;-1.118;2023-03-23T01:42:30;16.88;;;5.38;;
70667;SDS011;58242;51.250;-1.118;2023-03-23T01:47:43;16.45;;;4.93;;
70667;SDS011;58242;51.250;-1.118;2023-03-23T01:50:10;11.95;;;4.43;;
70667;SDS011;58242;51.250;-1.118;2023-03-23T01:52:35;16.70;;;5.40;;
70667;SDS011;58242;51.250;-1.118;2023-03-23T01:55:01;19.95;;;5.55;;
70667;SDS011;58242;51.250;-1.118;2023-03-23T01:57:28;14.77;;;5.07;;
70667;SDS011;58242;51.250;-1.118;2023-03-23T01:59:55;18.30;;;5.38;;
70667;SDS011;58242;51.250;-1.118;2023-03-23T02:02:23;17.07;;;4.90;;
70667;SDS011;58242;51.250;-1.118;2023-03-23T02:04:51;16.40;;;5.10;;
70667;SDS011;58242;51.250;-1.118;2023-03-23T02:07:20;11.75;;;4.30;;
70667;SDS011;58242;51.250;-1.118;2023-03-23T02:09:46;18.98;;;4.85;;
70667;SDS011;58242;51.250;-1.118;2023-03-23T02:12:11;11.70;;;4.60;;
70667;SDS011;58242;51.250;-1.118;2023-03-23T02:14:37;12.90;;;3.67;;
70667;SDS011;58242;51.250;-1.118;2023-03-23T02:17:09;14.25;;;4.70;;
70667;SDS011;58242;51.250;-1.118;2023-03-23T02:33:22;18.17;;;5.35;;
70667;SDS011;58242;51.250;-1.118;2023-03-23T02:36:17;21.45;;;5.97;;
70667;SDS011;58242;51.250;-1.118;2023-03-23T02:41:21;13.57;;;5.03;;
70667;SDS011;58242;51.250;-1.118;2023-03-23T02:43:52;13.95;;;4.57;;
70667;SDS011;58242;51.250;-1.118;2023-03-23T02:46:18;13.05;;;5.50;;
70667;SDS011;58242;51.250;-1.118;2023-03-23T02:48:45;18.55;;;5.28;;
70667;SDS011;58242;51.250;-1.118;2023-03-23T02:51:15;14.88;;;4.80;;
70667;SDS011;58242;51.250;-1.118;2023-03-23T02:53:43;10.85;;;4.30;;
70667;SDS011;58242;51.250;-1.118;2023-03-23T02:56:10;15.60;;;4.88;;
70667;SDS011;58242;51.250;-1.118;2023-03-23T02:58:37;9.18;;;3.95;;
70667;SDS011;58242;51.250;-1.118;2023-03-23T03:03:59;22.67;;;5.60;;
70667;SDS011;58242;51.250;-1.118;2023-03-23T03:11:52;15.07;;;5.07;;
70667;SDS011;58242;51.250;-1.118;2023-03-23T03:14:26;18.73;;;5.20;;
70667;SDS011;58242;51.250;-1.118;2023-03-23T03:22:02;21.25;;;5.32;;
70667;SDS011;58242;51.250;-1.118;2023-03-23T03:24:30;20.55;;;5.55;;
70667;SDS011;58242;51.250;-1.118;2023-03-23T03:26:56;26.65;;;6.40;;
70667;SDS011;58242;51.250;-1.118;2023-03-23T03:29:25;14.55;;;5.45;;
70667;SDS011;58242;51.250;-1.118;2023-03-23T03:31:56;22.73;;;6.10;;
70667;SDS011;58242;51.250;-1.118;2023-03-23T03:34:24;24.50;;;6.35;;
70667;SDS011;58242;51.250;-1.118;2023-03-23T03:36:50;22.55;;;6.22;;
70667;SDS011;58242;51.250;-1.118;2023-03-23T03:39:19;25.70;;;6.30;;
70667;SDS011;58242;51.250;-1.118;2023-03-23T03:41:46;16.45;;;5.05;;
70667;SDS011;58242;51.250;-1.118;2023-03-23T03:44:12;12.65;;;4.22;;
70667;SDS011;58242;51.250;-1.118;2023-03-23T03:46:38;21.70;;;5.10;;
70667;SDS011;58242;51.250;-1.118;2023-03-23T03:49:04;17.70;;;4.35;;
70667;SDS011;58242;51.250;-1.118;2023-03-23T03:51:32;19.55;;;6.40;;
70667;SDS011;58242;51.250;-1.118;2023-03-23T03:53:59;22.45;;;5.25;;
70667;SDS011;58242;51.250;-1.118;2023-03-23T03:56:25;20.33;;;5.50;;
70667;SDS011;58242;51.250;-1.118;2023-03-23T03:58:51;20.63;;;5.82;;
70667;SDS011;58242;51.250;-1.118;2023-03-23T04:01:17;15.18;;;4.82;;
70667;SDS011;58242;51.250;-1.118;2023-03-23T04:03:46;24.00;;;5.68;;
70667;SDS011;58242;51.250;-1.118;2023-03-23T04:06:11;17.80;;;5.53;;
70667;SDS011;58242;51.250;-1.118;2023-03-23T04:08:39;16.00;;;5.15;;
70667;SDS011;58242;51.250;-1.118;2023-03-23T04:11:07;12.95;;;4.80;;
70667;SDS011;58242;51.250;-1.118;2023-03-23T04:13:33;12.00;;;4.45;;
70667;SDS011;58242;51.250;-1.118;2023-03-23T04:15:58;12.13;;;4.10;;
70667;SDS011;58242;51.250;-1.118;2023-03-23T04:18:25;14.63;;;4.78;;
70667;SDS011;58242;51.250;-1.118;2023-03-23T04:20:50;14.07;;;4.55;;
70667;SDS011;58242;51.250;-1.118;2023-03-23T04:23:16;14.40;;;4.45;;
70667;SDS011;58242;51.250;-1.118;2023-03-23T04:25:47;14.52;;;4.00;;
70667;SDS011;58242;51.250;-1.118;2023-03-23T04:28:14;15.27;;;4.60;;
70667;SDS011;58242;51.250;-1.118;2023-03-23T04:30:43;24.65;;;6.22;;
70667;SDS011;58242;51.250;-1.118;2023-03-23T04:33:10;13.65;;;4.43;;
70667;SDS011;58242;51.250;-1.118;2023-03-23T04:35:40;18.63;;;5.50;;
70667;SDS011;58242;51.250;-1.118;2023-03-23T04:38:06;18.67;;;5.20;;
70667;SDS011;58242;51.250;-1.118;2023-03-23T04:40:32;16.88;;;4.60;;
70667;SDS011;58242;51.250;-1.118;2023-03-23T04:43:01;15.75;;;5.20;;
70667;SDS011;58242;51.250;-1.118;2023-03-23T04:47:55;15.75;;;4.40;;
70667;SDS011;58242;51.250;-1.118;2023-03-23T04:50:22;14.88;;;5.18;;
70667;SDS011;58242;51.250;-1.118;2023-03-23T04:52:52;18.98;;;5.28;;
70667;SDS011;58242;51.250;-1.118;2023-03-23T04:55:19;17.98;;;4.80;;
70667;SDS011;58242;51.250;-1.118;2023-03-23T04:57:45;19.92;;;5.85;;
70667;SDS011;58242;51.250;-1.118;2023-03-23T05:00:12;19.55;;;5.80;;
70667;SDS011;58242;51.250;-1.118;2023-03-23T05:02:41;19.23;;;5.53;;
70667;SDS011;58242;51.250;-1.118;2023-03-23T05:05:08;22.10;;;6.63;;
70667;SDS011;58242;51.250;-1.118;2023-03-23T05:07:36;20.20;;;5.32;;
70667;SDS011;58242;51.250;-1.118;2023-03-23T05:10:02;16.80;;;4.95;;
70667;SDS011;58242;51.250;-1.118;2023-03-23T05:12:27;11.48;;;4.22;;
70667;SDS011;58242;51.250;-1.118;2023-03-23T05:14:53;17.77;;;5.85;;
70667;SDS011;58242;51.250;-1.118;2023-03-23T05:17:18;18.05;;;5.70;;
70667;SDS011;58242;51.250;-1.118;2023-03-23T05:19:44;25.48;;;6.20;;
70667;SDS011;58242;51.250;-1.118;2023-03-23T05:22:12;19.87;;;5.07;;
70667;SDS011;58242;51.250;-1.118;2023-03-23T05:24:39;15.50;;;5.57;;
70667;SDS011;58242;51.250;-1.118;2023-03-23T05:27:05;17.42;;;5.57;;
70667;SDS011;58242;51.250;-1.118;2023-03-23T05:29:33;12.95;;;5.50;;
70667;SDS011;58242;51.250;-1.118;2023-03-23T05:32:00;16.48;;;5.30;;
70667;SDS011;58242;51.250;-1.118;2023-03-23T05:34:27;20.90;;;5.60;;
70667;SDS011;58242;51.250;-1.118;2023-03-23T05:36:54;20.98;;;6.03;;
70667;SDS011;58242;51.250;-1.118;2023-03-23T05:39:20;16.40;;;5.50;;
70667;SDS011;58242;51.250;-1.118;2023-03-23T05:41:46;18.75;;;6.38;;
70667;SDS011;58242;51.250;-1.118;2023-03-23T05:44:11;22.05;;;6.53;;
70667;SDS011;58242;51.250;-1.118;2023-03-23T05:46:38;18.48;;;5.82;;
70667;SDS011;58242;51.250;-1.118;2023-03-23T05:49:04;19.10;;;5.55;;
70667;SDS011;58242;51.250;-1.118;2023-03-23T05:51:29;13.57;;;4.50;;
70667;SDS011;58242;51.250;-1.118;2023-03-23T05:53:54;19.92;;;6.30;;
70667;SDS011;58242;51.250;-1.118;2023-03-23T05:56:20;15.27;;;5.53;;
70667;SDS011;58242;51.250;-1.118;2023-03-23T05:58:46;14.93;;;5.65;;
70667;SDS011;58242;51.250;-1.118;2023-03-23T06:01:11;19.25;;;6.43;;
70667;SDS011;58242;51.250;-1.118;2023-03-23T06:03:39;20.98;;;5.85;;
70667;SDS011;58242;51.250;-1.118;2023-03-23T06:06:04;20.80;;;6.68;;
70667;SDS011;58242;51.250;-1.118;2023-03-23T06:08:30;21.45;;;6.00;;
70667;SDS011;58242;51.250;-1.118;2023-03-23T06:10:56;17.92;;;6.18;;
70667;SDS011;58242;51.250;-1.118;2023-03-23T06:13:21;14.45;;;6.13;;
70667;SDS011;58242;51.250;-1.118;2023-03-23T06:15:48;9.70;;;4.72;;
70667;SDS011;58242;51.250;-1.118;2023-03-23T06:18:13;14.40;;;5.63;;
70667;SDS011;58242;51.250;-1.118;2023-03-23T06:20:39;15.00;;;4.88;;
70667;SDS011;58242;51.250;-1.118;2023-03-23T06:23:05;12.43;;;5.25;;
70667;SDS011;58242;51.250;-1.118;2023-03-23T06:25:31;13.30;;;5.55;;
70667;SDS011;58242;51.250;-1.118;2023-03-23T06:27:57;24.58;;;7.28;;
70667;SDS011;58242;51.250;-1.118;2023-03-23T06:30:22;14.38;;;5.38;;
70667;SDS011;58242;51.250;-1.118;2023-03-23T06:32:48;23.10;;;7.43;;
70667;SDS011;58242;51.250;-1.118;2023-03-23T06:35:13;13.25;;;4.60;;
70667;SDS011;58242;51.250;-1.118;2023-03-23T06:37:40;18.77;;;6.05;;
70667;SDS011;58242;51.250;-1.118;2023-03-23T06:40:05;22.17;;;6.97;;
70667;SDS011;58242;51.250;-1.118;2023-03-23T06:42:32;29.63;;;9.25;;
70667;SDS011;58242;51.250;-1.118;2023-03-23T06:44:57;25.90;;;8.30;;
70667;SDS011;58242;51.250;-1.118;2023-03-23T06:47:23;19.85;;;6.85;;
70667;SDS011;58242;51.250;-1.118;2023-03-23T06:49:49;28.45;;;7.80;;
70667;SDS011;58242;51.250;-1.118;2023-03-23T06:52:15;19.52;;;5.65;;
70667;SDS011;58242;51.250;-1.118;2023-03-23T06:54:40;21.75;;;6.47;;
70667;SDS011;58242;51.250;-1.118;2023-03-23T06:57:06;27.83;;;7.38;;
70667;SDS011;58242;51.250;-1.118;2023-03-23T06:59:32;21.55;;;7.15;;
70667;SDS011;58242;51.250;-1.118;2023-03-23T07:01:57;22.63;;;6.70;;
70667;SDS011;58242;51.250;-1.118;2023-03-23T07:04:23;21.13;;;6.10;;
70667;SDS011;58242;51.250;-1.118;2023-03-23T07:06:48;30.67;;;8.35;;
70667;SDS011;58242;51.250;-1.118;2023-03-23T07:09:14;30.02;;;7.72;;
70667;SDS011;58242;51.250;-1.118;2023-03-23T07:11:39;22.00;;;6.15;;
70667;SDS011;58242;51.250;-1.118;2023-03-23T07:14:04;23.88;;;6.65;;
70667;SDS011;58242;51.250;-1.118;2023-03-23T07:16:30;22.25;;;6.82;;
70667;SDS011;58242;51.250;-1.118;2023-03-23T07:18:56;23.00;;;8.02;;
70667;SDS011;58242;51.250;-1.118;2023-03-23T07:21:21;25.02;;;7.50;;
70667;SDS011;58242;51.250;-1.118;2023-03-23T07:23:46;15.75;;;5.78;;
70667;SDS011;58242;51.250;-1.118;2023-03-23T07:26:12;26.10;;;8.07;;
70667;SDS011;58242;51.250;-1.118;2023-03-23T07:28:37;17.58;;;5.82;;
70667;SDS011;58242;51.250;-1.118;2023-03-23T07:31:04;20.88;;;7.88;;
70667;SDS011;58242;51.250;-1.118;2023-03-23T07:33:30;22.20;;;6.45;;
70667;SDS011;58242;51.250;-1.118;2023-03-23T07:35:58;24.13;;;7.03;;
70667;SDS011;58242;51.250;-1.118;2023-03-23T07:38:24;16.20;;;6.97;;
70667;SDS011;58242;51.250;-1.118;2023-03-23T07:40:52;20.08;;;6.80;;
70667;SDS011;58242;51.250;-1.118;2023-03-23T07:43:18;22.52;;;6.13;;
70667;SDS011;58242;51.250;-1.118;2023-03-23T07:45:44;18.73;;;6.65;;
70667;SDS011;58242;51.250;-1.118;2023-03-23T07:48:10;16.70;;;5.25;;
70667;SDS011;58242;51.250;-1.118;2023-03-23T07:50:35;22.23;;;6.82;;
70667;SDS011;58242;51.250;-1.118;2023-03-23T07:53:02;18.95;;;6.03;;
70667;SDS011;58242;51.250;-1.118;2023-03-23T07:55:27;15.10;;;5.63;;
70667;SDS011;58242;51.250;-1.118;2023-03-23T07:57:53;16.67;;;6.57;;
70667;SDS011;58242;51.250;-1.118;2023-03-23T08:00:20;17.88;;;5.97;;
70667;SDS011;58242;51.250;-1.118;2023-03-23T08:02:49;18.52;;;7.40;;
70667;SDS011;58242;51.250;-1.118;2023-03-23T08:05:16;24.13;;;8.18;;
70667;SDS011;58242;51.250;-1.118;2023-03-23T08:07:42;22.63;;;8.18;;
70667;SDS011;58242;51.250;-1.118;2023-03-23T08:10:10;17.55;;;7.30;;
70667;SDS011;58242;51.250;-1.118;2023-03-23T08:12:37;19.98;;;7.22;;
70667;SDS011;58242;51.250;-1.118;2023-03-23T08:15:04;15.98;;;7.07;;
70667;SDS011;58242;51.250;-1.118;2023-03-23T08:17:34;20.92;;;7.43;;
70667;SDS011;58242;51.250;-1.118;2023-03-23T08:20:00;17.48;;;6.78;;
70667;SDS011;58242;51.250;-1.118;2023-03-23T08:22:33;18.40;;;5.82;;
70667;SDS011;58242;51.250;-1.118;2023-03-23T08:24:58;24.15;;;7.35;;
70667;SDS011;58242;51.250;-1.118;2023-03-23T08:27:25;19.25;;;7.00;;
70667;SDS011;58242;51.250;-1.118;2023-03-23T08:29:51;24.85;;;7.55;;
70667;SDS011;58242;51.250;-1.118;2023-03-23T08:32:16;21.75;;;7.00;;
70667;SDS011;58242;51.250;-1.118;2023-03-23T08:34:41;16.58;;;7.05;;
70667;SDS011;58242;51.250;-1.118;2023-03-23T08:37:08;18.23;;;6.60;;
70667;SDS011;58242;51.250;-1.118;2023-03-23T08:39:34;25.13;;;8.20;;
70667;SDS011;58242;51.250;-1.118;2023-03-23T08:41:59;14.30;;;6.15;;
70667;SDS011;58242;51.250;-1.118;2023-03-23T08:44:24;18.95;;;6.70;;
70667;SDS011;58242;51.250;-1.118;2023-03-23T08:46:50;10.85;;;5.93;;
70667;SDS011;58242;51.250;-1.118;2023-03-23T08:49:22;19.73;;;6.90;;
70667;SDS011;58242;51.250;-1.118;2023-03-23T08:51:48;16.80;;;6.32;;
70667;SDS011;58242;51.250;-1.118;2023-03-23T08:54:14;11.57;;;5.72;;
70667;SDS011;58242;51.250;-1.118;2023-03-23T08:56:39;14.75;;;6.35;;
70667;SDS011;58242;51.250;-1.118;2023-03-23T08:59:05;11.98;;;5.50;;
70667;SDS011;58242;51.250;-1.118;2023-03-23T09:01:31;13.60;;;5.35;;
70667;SDS011;58242;51.250;-1.118;2023-03-23T09:03:58;13.38;;;5.90;;
70667;SDS011;58242;51.250;-1.118;2023-03-23T09:06:23;13.13;;;5.72;;
70667;SDS011;58242;51.250;-1.118;2023-03-23T09:08:49;14.82;;;6.45;;
70667;SDS011;58242;51.250;-1.118;2023-03-23T09:11:15;11.18;;;5.20;;
70667;SDS011;58242;51.250;-1.118;2023-03-23T09:13:40;17.08;;;6.53;;
70667;SDS011;58242;51.250;-1.118;2023-03-23T09:16:06;12.55;;;5.53;;
70667;SDS011;58242;51.250;-1.118;2023-03-23T09:18:32;13.85;;;5.75;;
70667;SDS011;58242;51.250;-1.118;2023-03-23T09:20:59;11.38;;;5.78;;
70667;SDS011;58242;51.250;-1.118;2023-03-23T09:23:25;11.93;;;5.40;;
70667;SDS011;58242;51.250;-1.118;2023-03-23T09:25:50;12.23;;;6.10;;
70667;SDS011;58242;51.250;-1.118;2023-03-23T09:28:16;11.32;;;5.15;;
70667;SDS011;58242;51.250;-1.118;2023-03-23T09:30:42;15.88;;;5.65;;
70667;SDS011;58242;51.250;-1.118;2023-03-23T09:33:09;13.90;;;5.32;;
70667;SDS011;58242;51.250;-1.118;2023-03-23T09:35:35;10.68;;;5.10;;
70667;SDS011;58242;51.250;-1.118;2023-03-23T09:38:02;14.55;;;6.15;;
70667;SDS011;58242;51.250;-1.118;2023-03-23T09:40:30;12.73;;;5.45;;
70667;SDS011;58242;51.250;-1.118;2023-03-23T09:46:01;10.52;;;5.43;;
70667;SDS011;58242;51.250;-1.118;2023-03-23T09:48:58;9.02;;;4.70;;
70667;SDS011;58242;51.250;-1.118;2023-03-23T09:51:45;13.00;;;4.78;;
70667;SDS011;58242;51.250;-1.118;2023-03-23T09:54:17;16.33;;;5.70;;
70667;SDS011;58242;51.250;-1.118;2023-03-23T09:56:47;16.65;;;6.50;;
70667;SDS011;58242;51.250;-1.118;2023-03-23T09:59:17;15.38;;;5.85;;
70667;SDS011;58242;51.250;-1.118;2023-03-23T10:01:46;10.73;;;4.93;;
70667;SDS011;58242;51.250;-1.118;2023-03-23T10:04:21;14.82;;;5.88;;
70667;SDS011;58242;51.250;-1.118;2023-03-23T10:06:52;21.60;;;6.60;;
70667;SDS011;58242;51.250;-1.118;2023-03-23T10:09:23;12.98;;;5.40;;
70667;SDS011;58242;51.250;-1.118;2023-03-23T10:12:07;13.40;;;5.57;;
70667;SDS011;58242;51.250;-1.118;2023-03-23T10:15:02;18.98;;;6.68;;
70667;SDS011;58242;51.250;-1.118;2023-03-23T10:17:29;13.32;;;5.65;;
70667;SDS011;58242;51.250;-1.118;2023-03-23T10:22:46;16.73;;;6.85;;
70667;SDS011;58242;51.250;-1.118;2023-03-23T10:25:22;13.25;;;5.50;;
70667;SDS011;58242;51.250;-1.118;2023-03-23T10:30:48;18.83;;;6.38;;
70667;SDS011;58242;51.250;-1.118;2023-03-23T10:36:05;14.30;;;6.32;;
70667;SDS011;58242;51.250;-1.118;2023-03-23T10:41:03;15.98;;;6.47;;
70667;SDS011;58242;51.250;-1.118;2023-03-23T10:43:42;12.27;;;5.85;;
70667;SDS011;58242;51.250;-1.118;2023-03-23T10:48:56;14.52;;;5.95;;
70667;SDS011;58242;51.250;-1.118;2023-03-23T10:51:27;18.40;;;6.47;;
70667;SDS011;58242;51.250;-1.118;2023-03-23T10:54:00;13.88;;;5.78;;
70667;SDS011;58242;51.250;-1.118;2023-03-23T10:56:27;17.35;;;6.60;;
70667;SDS011;58242;51.250;-1.118;2023-03-23T10:59:11;18.60;;;7.10;;
70667;SDS011;58242;51.250;-1.118;2023-03-23T11:01:38;20.80;;;7.10;;
70667;SDS011;58242;51.250;-1.118;2023-03-23T11:04:10;18.73;;;6.75;;
70667;SDS011;58242;51.250;-1.118;2023-03-23T11:06:37;15.25;;;5.88;;
70667;SDS011;58242;51.250;-1.118;2023-03-23T11:09:14;17.58;;;6.50;;
70667;SDS011;58242;51.250;-1.118;2023-03-23T11:11:48;16.90;;;6.72;;
70667;SDS011;58242;51.250;-1.118;2023-03-23T11:14:18;18.00;;;6.45;;
70667;SDS011;58242;51.250;-1.118;2023-03-23T11:16:50;18.75;;;7.43;;
70667;SDS011;58242;51.250;-1.118;2023-03-23T11:21:51;19.45;;;7.20;;
70667;SDS011;58242;51.250;-1.118;2023-03-23T11:24:20;13.90;;;6.32;;
70667;SDS011;58242;51.250;-1.118;2023-03-23T11:26:47;24.42;;;7.60;;
70667;SDS011;58242;51.250;-1.118;2023-03-23T11:31:47;27.25;;;8.23;;
70667;SDS011;58242;51.250;-1.118;2023-03-23T11:34:24;14.80;;;5.97;;
70667;SDS011;58242;51.250;-1.118;2023-03-23T11:37:00;12.20;;;6.47;;
70667;SDS011;58242;51.250;-1.118;2023-03-23T11:39:32;17.75;;;6.60;;
70667;SDS011;58242;51.250;-1.118;2023-03-23T11:42:18;20.33;;;7.00;;
70667;SDS011;58242;51.250;-1.118;2023-03-23T11:44:45;18.60;;;6.88;;
70667;SDS011;58242;51.250;-1.118;2023-03-23T11:47:20;17.73;;;6.38;;
70667;SDS011;58242;51.250;-1.118;2023-03-23T11:49:57;10.43;;;5.57;;
70667;SDS011;58242;51.250;-1.118;2023-03-23T11:52:39;16.38;;;6.53;;
70667;SDS011;58242;51.250;-1.118;2023-03-23T11:55:18;14.57;;;6.38;;
70667;SDS011;58242;51.250;-1.118;2023-03-23T11:57:50;15.90;;;6.35;;
70667;SDS011;58242;51.250;-1.118;2023-03-23T12:00:20;14.88;;;5.97;;
70667;SDS011;58242;51.250;-1.118;2023-03-23T12:06:02;13.00;;;5.95;;
70667;SDS011;58242;51.250;-1.118;2023-03-23T12:11:15;12.90;;;5.55;;
70667;SDS011;58242;51.250;-1.118;2023-03-23T12:14:00;13.13;;;5.18;;
70667;SDS011;58242;51.250;-1.118;2023-03-23T12:16:45;20.42;;;6.88;;
70667;SDS011;58242;51.250;-1.118;2023-03-23T12:32:46;18.30;;;6.40;;
70667;SDS011;58242;51.250;-1.118;2023-03-23T12:41:05;14.20;;;6.13;;
70667;SDS011;58242;51.250;-1.118;2023-03-23T12:43:50;17.48;;;7.35;;
70667;SDS011;58242;51.250;-1.118;2023-03-23T12:49:20;9.98;;;5.28;;
70667;SDS011;58242;51.250;-1.118;2023-03-23T12:57:12;14.30;;;6.07;;
70667;SDS011;58242;51.250;-1.118;2023-03-23T13:02:24;14.93;;;5.60;;
70667;SDS011;58242;51.250;-1.118;2023-03-23T13:04:59;19.08;;;6.47;;
70667;SDS011;58242;51.250;-1.118;2023-03-23T13:07:31;12.95;;;5.63;;
70667;SDS011;58242;51.250;-1.118;2023-03-23T13:10:05;13.90;;;5.35;;
70667;SDS011;58242;51.250;-1.118;2023-03-23T13:12:37;12.95;;;5.32;;
70667;SDS011;58242;51.250;-1.118;2023-03-23T13:17:56;12.75;;;5.53;;
70667;SDS011;58242;51.250;-1.118;2023-03-23T13:23:34;12.18;;;5.22;;
70667;SDS011;58242;51.250;-1.118;2023-03-23T13:26:06;13.45;;;5.95;;
70667;SDS011;58242;51.250;-1.118;2023-03-23T13:34:13;14.10;;;5.97;;
70667;SDS011;58242;51.250;-1.118;2023-03-23T13:36:44;13.88;;;5.93;;
70667;SDS011;58242;51.250;-1.118;2023-03-23T13:39:30;18.95;;;6.32;;
70667;SDS011;58242;51.250;-1.118;2023-03-23T13:42:03;15.63;;;5.90;;
70667;SDS011;58242;51.250;-1.118;2023-03-23T13:44:54;15.93;;;5.43;;
70667;SDS011;58242;51.250;-1.118;2023-03-23T13:50:09;12.43;;;5.57;;
70667;SDS011;58242;51.250;-1.118;2023-03-23T13:57:55;15.07;;;6.57;;
70667;SDS011;58242;51.250;-1.118;2023-03-23T14:05:38;19.70;;;6.57;;
70667;SDS011;58242;51.250;-1.118;2023-03-23T14:10:48;22.05;;;8.32;;
70667;SDS011;58242;51.250;-1.118;2023-03-23T14:18:41;21.23;;;7.97;;
70667;SDS011;58242;51.250;-1.118;2023-03-23T14:21:15;16.23;;;6.53;;
70667;SDS011;58242;51.250;-1.118;2023-03-23T14:23:42;22.88;;;7.88;;
70667;SDS011;58242;51.250;-1.118;2023-03-23T14:26:11;18.50;;;6.70;;
70667;SDS011;58242;51.250;-1.118;2023-03-23T14:28:42;22.05;;;6.80;;
70667;SDS011;58242;51.250;-1.118;2023-03-23T14:31:20;16.75;;;6.93;;
70667;SDS011;58242;51.250;-1.118;2023-03-23T14:33:47;17.05;;;6.43;;
70667;SDS011;58242;51.250;-1.118;2023-03-23T14:36:14;26.85;;;7.00;;
70667;SDS011;58242;51.250;-1.118;2023-03-23T14:38:44;16.30;;;6.50;;
70667;SDS011;58242;51.250;-1.118;2023-03-23T14:41:10;22.77;;;8.27;;
70667;SDS011;58242;51.250;-1.118;2023-03-23T14:43:37;18.05;;;6.53;;
70667;SDS011;58242;51.250;-1.118;2023-03-23T14:46:05;17.27;;;7.10;;
70667;SDS011;58242;51.250;-1.118;2023-03-23T14:48:32;19.50;;;7.00;;
70667;SDS011;58242;51.250;-1.118;2023-03-23T14:50:58;23.00;;;7.13;;
70667;SDS011;58242;51.250;-1.118;2023-03-23T14:53:37;13.73;;;5.95;;
70667;SDS011;58242;51.250;-1.118;2023-03-23T14:56:09;17.98;;;7.28;;
70667;SDS011;58242;51.250;-1.118;2023-03-23T14:58:36;19.90;;;8.43;;
70667;SDS011;58242;51.250;-1.118;2023-03-23T15:01:08;15.60;;;7.20;;
70667;SDS011;58242;51.250;-1.118;2023-03-23T15:03:40;18.40;;;6.45;;
70667;SDS011;58242;51.250;-1.118;2023-03-23T15:06:11;20.55;;;7.28;;
70667;SDS011;58242;51.250;-1.118;2023-03-23T15:08:39;17.88;;;7.22;;
70667;SDS011;58242;51.250;-1.118;2023-03-23T15:11:07;20.23;;;6.43;;
70667;SDS011;58242;51.250;-1.118;2023-03-23T15:13:37;16.80;;;6.10;;
70667;SDS011;58242;51.250;-1.118;2023-03-23T15:16:11;15.77;;;6.57;;
70667;SDS011;58242;51.250;-1.118;2023-03-23T15:18:39;20.10;;;6.68;;
70667;SDS011;58242;51.250;-1.118;2023-03-23T15:21:11;19.42;;;6.88;;
70667;SDS011;58242;51.250;-1.118;2023-03-23T15:23:45;11.10;;;5.00;;
70667;SDS011;58242;51.250;-1.118;2023-03-23T15:26:17;17.15;;;6.88;;
70667;SDS011;58242;51.250;-1.118;2023-03-23T15:28:48;17.20;;;6.50;;
70667;SDS011;58242;51.250;-1.118;2023-03-23T15:31:13;20.08;;;6.40;;
70667;SDS011;58242;51.250;-1.118;2023-03-23T15:33:39;14.05;;;5.63;;
70667;SDS011;58242;51.250;-1.118;2023-03-23T15:36:13;12.13;;;5.10;;
70667;SDS011;58242;51.250;-1.118;2023-03-23T15:38:42;19.45;;;5.88;;
70667;SDS011;58242;51.250;-1.118;2023-03-23T15:41:19;13.13;;;5.40;;
70667;SDS011;58242;51.250;-1.118;2023-03-23T15:43:51;11.88;;;5.00;;
70667;SDS011;58242;51.250;-1.118;2023-03-23T15:51:23;11.32;;;4.70;;
70667;SDS011;58242;51.250;-1.118;2023-03-23T15:53:51;14.18;;;5.45;;
70667;SDS011;58242;51.250;-1.118;2023-03-23T15:56:18;12.48;;;6.18;;
70667;SDS011;58242;51.250;-1.118;2023-03-23T15:58:43;9.93;;;4.97;;
70667;SDS011;58242;51.250;-1.118;2023-03-23T16:01:19;13.35;;;5.38;;
70667;SDS011;58242;51.250;-1.118;2023-03-23T16:06:13;7.28;;;4.25;;
70667;SDS011;58242;51.250;-1.118;2023-03-23T16:08:40;9.25;;;4.25;;
70667;SDS011;58242;51.250;-1.118;2023-03-23T16:11:06;6.40;;;4.18;;
70667;SDS011;58242;51.250;-1.118;2023-03-23T16:13:33;9.43;;;4.90;;
70667;SDS011;58242;51.250;-1.118;2023-03-23T16:15:59;10.98;;;5.60;;
70667;SDS011;58242;51.250;-1.118;2023-03-23T16:18:24;8.20;;;4.57;;
70667;SDS011;58242;51.250;-1.118;2023-03-23T16:20:49;11.27;;;5.03;;
70667;SDS011;58242;51.250;-1.118;2023-03-23T16:23:15;12.98;;;5.68;;
70667;SDS011;58242;51.250;-1.118;2023-03-23T16:25:41;9.07;;;4.55;;
70667;SDS011;58242;51.250;-1.118;2023-03-23T16:28:08;7.53;;;4.28;;
70667;SDS011;58242;51.250;-1.118;2023-03-23T16:30:36;6.05;;;4.40;;
70667;SDS011;58242;51.250;-1.118;2023-03-23T16:33:02;3.72;;;3.30;;
70667;SDS011;58242;51.250;-1.118;2023-03-23T16:35:27;10.20;;;5.10;;
70667;SDS011;58242;51.250;-1.118;2023-03-23T16:37:54;10.57;;;5.20;;
70667;SDS011;58242;51.250;-1.118;2023-03-23T16:40:20;5.32;;;4.20;;
70667;SDS011;58242;51.250;-1.118;2023-03-23T16:42:47;3.67;;;3.38;;